createdAt,value
2022-07-29T00:06:40.191Z,3.08
2022-07-29T00:09:54.940Z,3.50
2022-07-29T00:13:18.647Z,3.35
2022-07-29T00:17:30.638Z,3.25
2022-07-29T00:24:51.855Z,3.17
2022-07-29T00:28:19.975Z,3.40
2022-07-29T00:31:54.286Z,4.20
2022-07-29T00:39:13.791Z,3.08
2022-07-29T00:46:08.411Z,3.42
2022-07-29T00:53:11.676Z,3.53
2022-07-29T00:56:44.939Z,3.22
2022-07-29T01:00:33.163Z,3.20
2022-07-29T01:04:02.602Z,3.40
2022-07-29T01:07:16.445Z,3.88
2022-07-29T01:10:47.464Z,3.47
2022-07-29T01:14:08.736Z,3.63
2022-07-29T01:17:34.806Z,3.40
2022-07-29T01:21:21.502Z,3.75
2022-07-29T01:29:40.322Z,3.03
2022-07-29T01:32:57.920Z,3.80
2022-07-29T01:47:52.223Z,3.35
2022-07-29T01:51:20.204Z,2.85
2022-07-29T01:54:56.806Z,3.35
2022-07-29T01:58:11.466Z,3.70
2022-07-29T02:05:37.039Z,2.83
2022-07-29T02:09:32.090Z,2.92
2022-07-29T02:12:50.927Z,2.80
2022-07-29T02:16:22.097Z,2.72
2022-07-29T02:20:04.565Z,2.55
2022-07-29T02:23:54.118Z,2.50
2022-07-29T02:27:36.761Z,2.70
2022-07-29T02:38:31.482Z,3.22
2022-07-29T02:42:17.378Z,2.65
2022-07-29T02:45:39.811Z,3.10
2022-07-29T02:48:55.743Z,2.80
2022-07-29T02:52:06.370Z,2.90
2022-07-29T02:55:49.649Z,2.72
2022-07-29T03:03:15.519Z,2.45
2022-07-29T03:06:41.472Z,2.88
2022-07-29T03:14:06.564Z,2.78
2022-07-29T03:17:58.429Z,2.55
2022-07-29T03:25:12.379Z,3.05
2022-07-29T03:28:32.699Z,3.10
2022-07-29T03:31:50.651Z,2.95
2022-07-29T03:35:14.074Z,3.08
2022-07-29T03:38:45.447Z,2.90
2022-07-29T03:42:13.004Z,3.17
2022-07-29T03:46:10.866Z,2.95
2022-07-29T03:49:28.703Z,2.88
2022-07-29T03:53:03.765Z,2.88
2022-07-29T03:56:14.977Z,2.55
2022-07-29T03:59:45.929Z,2.80
2022-07-29T04:03:04.582Z,2.83
2022-07-29T04:10:30.062Z,2.88
2022-07-29T04:14:01.334Z,3.40
2022-07-29T04:17:37.722Z,2.90
2022-07-29T04:20:54.147Z,3.03
2022-07-29T04:24:26.194Z,3.10
2022-07-29T04:28:06.459Z,3.50
2022-07-29T04:31:44.457Z,3.15
2022-07-29T04:34:59.437Z,3.15
2022-07-29T04:41:07.674Z,2.80
2022-07-29T04:44:12.246Z,2.97
2022-07-29T04:47:14.951Z,3.05
2022-07-29T04:50:17.797Z,3.20
2022-07-29T04:53:20.682Z,2.70
2022-07-29T04:56:23.501Z,2.90
2022-07-29T04:59:28.127Z,3.47
2022-07-29T05:02:30.883Z,3.75
2022-07-29T05:05:33.706Z,3.20
2022-07-29T05:08:36.806Z,2.75
2022-07-29T05:11:39.930Z,2.60
2022-07-29T05:14:44.183Z,2.67
2022-07-29T05:17:46.942Z,2.33
2022-07-29T05:20:49.734Z,2.50
2022-07-29T05:23:53.039Z,2.25
2022-07-29T05:26:56.079Z,2.50
2022-07-29T05:30:00.437Z,2.40
2022-07-29T05:33:03.174Z,2.08
2022-07-29T05:36:08.041Z,2.40
2022-07-29T05:39:11.448Z,2.22
2022-07-29T05:42:14.257Z,1.90
2022-07-29T05:45:18.500Z,1.80
2022-07-29T05:48:21.612Z,1.80
2022-07-29T05:51:24.322Z,1.70
2022-07-29T05:54:27.114Z,1.92
2022-07-29T05:57:29.861Z,2.30
2022-07-29T06:00:34.026Z,2.10
2022-07-29T06:03:38.668Z,1.90
2022-07-29T06:06:41.445Z,2.40
2022-07-29T06:09:44.966Z,2.45
2022-07-29T06:12:47.673Z,2.78
2022-07-29T06:15:51.757Z,2.30
2022-07-29T06:18:54.516Z,2.50
2022-07-29T06:21:57.640Z,2.28
2022-07-29T06:25:00.459Z,2.20
2022-07-29T06:28:03.340Z,2.38
2022-07-29T06:31:07.533Z,2.60
2022-07-29T06:34:13.105Z,2.20
2022-07-29T06:37:16.378Z,2.15
2022-07-29T06:40:37.126Z,2.08
2022-07-29T06:43:52.139Z,2.60
2022-07-29T06:46:59.112Z,2.58
2022-07-29T06:50:01.839Z,2.40
2022-07-29T06:53:06.212Z,2.22
2022-07-29T06:56:10.143Z,2.40
2022-07-29T06:59:14.081Z,2.70
2022-07-29T07:02:18.231Z,2.30
2022-07-29T07:05:21.014Z,2.40
2022-07-29T07:08:24.725Z,3.38
2022-07-29T07:11:27.484Z,3.10
2022-07-29T07:14:30.335Z,2.58
2022-07-29T07:17:34.523Z,2.50
2022-07-29T07:20:38.365Z,2.65
2022-07-29T07:23:41.078Z,2.78
2022-07-29T07:26:43.781Z,3.00
2022-07-29T07:29:46.605Z,3.10
2022-07-29T07:32:51.105Z,2.72
2022-07-29T07:35:53.818Z,2.90
2022-07-29T07:38:56.566Z,3.00
2022-07-29T07:41:59.253Z,3.17
2022-07-29T07:45:13.464Z,2.75
2022-07-29T07:48:18.742Z,3.22
2022-07-29T07:51:21.886Z,3.03
2022-07-29T07:54:24.694Z,3.05
2022-07-29T07:57:27.574Z,3.10
2022-07-29T08:00:30.386Z,3.08
2022-07-29T08:03:34.857Z,3.25
2022-07-29T08:06:37.926Z,2.75
2022-07-29T08:09:40.653Z,3.17
2022-07-29T08:12:43.426Z,3.13
2022-07-29T08:15:46.940Z,2.80
2022-07-29T08:18:51.247Z,3.25
2022-07-29T08:21:55.473Z,2.78
2022-07-29T08:24:58.478Z,2.80
2022-07-29T08:28:01.271Z,3.00
2022-07-29T08:31:04.066Z,3.00
2022-07-29T08:34:08.347Z,2.88
2022-07-29T08:37:11.074Z,2.58
2022-07-29T08:40:15.061Z,2.78
2022-07-29T08:43:18.183Z,3.33
2022-07-29T08:46:21.745Z,3.05
2022-07-29T08:49:25.989Z,2.85
2022-07-29T08:52:31.412Z,2.80
2022-07-29T08:55:34.840Z,3.30
2022-07-29T08:58:38.467Z,2.83
2022-07-29T09:01:45.044Z,2.78
2022-07-29T09:04:49.756Z,3.40
2022-07-29T09:07:53.407Z,2.72
2022-07-29T09:10:56.935Z,2.83
2022-07-29T09:13:59.603Z,3.13
2022-07-29T09:17:02.892Z,3.35
2022-07-29T09:20:13.089Z,3.13
2022-07-29T09:23:23.044Z,3.42
2022-07-29T09:26:30.602Z,2.90
2022-07-29T09:29:36.288Z,3.38
2022-07-29T09:32:57.569Z,3.03
2022-07-29T09:36:05.786Z,3.08
2022-07-29T09:39:09.390Z,3.08
2022-07-29T09:42:12.499Z,3.30
2022-07-29T09:45:29.096Z,2.95
2022-07-29T09:48:32.170Z,3.15
2022-07-29T09:51:38.148Z,3.08
2022-07-29T09:54:41.406Z,3.28
2022-07-29T09:57:45.026Z,3.30
2022-07-29T10:00:48.609Z,3.50
2022-07-29T10:03:54.473Z,2.90
2022-07-29T10:07:04.347Z,3.00
2022-07-29T10:10:07.895Z,3.28
2022-07-29T10:13:15.663Z,3.25
2022-07-29T10:16:19.727Z,2.80
2022-07-29T10:19:22.779Z,3.10
2022-07-29T10:22:52.025Z,3.17
2022-07-29T10:25:49.774Z,3.17
2022-07-29T10:28:52.481Z,3.40
2022-07-29T10:32:09.536Z,3.67
2022-07-29T10:35:21.784Z,2.83
2022-07-29T10:38:31.790Z,3.03
2022-07-29T10:42:04.282Z,3.03
2022-07-29T10:45:08.695Z,3.53
2022-07-29T10:48:11.561Z,3.05
2022-07-29T10:51:18.050Z,3.30
2022-07-29T10:54:37.725Z,3.67
2022-07-29T10:58:13.486Z,3.65
2022-07-29T11:01:37.222Z,3.30
2022-07-29T11:05:05.141Z,3.38
2022-07-29T11:08:27.981Z,3.80
2022-07-29T11:11:35.009Z,3.80
2022-07-29T11:14:58.977Z,4.22
2022-07-29T11:18:14.976Z,4.70
2022-07-29T11:21:54.792Z,3.60
2022-07-29T11:25:16.693Z,3.92
2022-07-29T11:28:25.262Z,3.15
2022-07-29T11:31:39.492Z,3.80
2022-07-29T11:34:42.673Z,3.03
2022-07-29T11:37:46.058Z,3.42
2022-07-29T11:41:23.049Z,3.63
2022-07-29T11:44:57.163Z,3.70
2022-07-29T11:48:29.267Z,3.55
2022-07-29T11:51:33.007Z,3.80
2022-07-29T11:54:57.551Z,3.70
2022-07-29T11:58:03.908Z,3.63
2022-07-29T12:01:07.298Z,3.72
2022-07-29T12:04:11.549Z,3.75
2022-07-29T12:07:16.991Z,3.83
2022-07-29T12:10:29.994Z,3.60
2022-07-29T12:13:41.126Z,3.70
2022-07-29T12:16:43.917Z,4.20
2022-07-29T12:19:48.609Z,3.95
2022-07-29T12:22:55.460Z,4.20
2022-07-29T12:26:00.482Z,3.80
2022-07-29T12:29:03.985Z,3.90
2022-07-29T12:32:14.420Z,3.85
2022-07-29T12:35:22.047Z,4.00
2022-07-29T12:38:25.138Z,4.53
2022-07-29T12:41:29.889Z,3.50
2022-07-29T12:44:46.337Z,3.50
2022-07-29T12:47:55.728Z,3.40
2022-07-29T12:51:02.375Z,3.88
2022-07-29T12:54:11.475Z,3.63
2022-07-29T12:57:20.089Z,3.50
2022-07-29T13:00:25.876Z,3.92
2022-07-29T13:03:28.801Z,4.00
2022-07-29T13:06:41.560Z,3.63
2022-07-29T13:09:46.679Z,3.42
2022-07-29T13:13:11.373Z,4.13
2022-07-29T13:16:14.255Z,3.00
2022-07-29T13:19:17.032Z,3.20
2022-07-29T13:22:22.684Z,2.80
2022-07-29T13:25:26.933Z,2.88
2022-07-29T13:28:29.930Z,3.00
2022-07-29T13:31:32.677Z,2.85
2022-07-29T13:34:35.571Z,2.45
2022-07-29T13:37:40.054Z,2.58
2022-07-29T13:40:43.420Z,2.70
2022-07-29T13:43:46.174Z,2.58
2022-07-29T13:46:52.796Z,2.90
2022-07-29T13:49:55.706Z,2.40
2022-07-29T13:52:59.908Z,2.45
2022-07-29T13:56:02.634Z,2.70
2022-07-29T13:59:05.309Z,2.67
2022-07-29T14:02:08.501Z,2.47
2022-07-29T14:05:11.862Z,2.88
2022-07-29T14:08:16.021Z,3.30
2022-07-29T14:11:18.924Z,2.88
2022-07-29T14:14:22.019Z,2.60
2022-07-29T14:17:24.907Z,2.92
2022-07-29T14:20:29.533Z,3.20
2022-07-29T14:23:33.582Z,3.08
2022-07-29T14:26:36.384Z,2.75
2022-07-29T14:29:39.806Z,2.80
2022-07-29T14:32:42.800Z,2.83
2022-07-29T14:35:47.420Z,2.90
2022-07-29T14:38:51.788Z,2.75
2022-07-29T14:41:55.093Z,2.90
2022-07-29T14:44:57.940Z,2.65
2022-07-29T14:48:01.297Z,2.53
2022-07-29T14:51:04.995Z,2.20
2022-07-29T14:54:09.728Z,2.42
2022-07-29T14:57:13.358Z,2.78
2022-07-29T15:00:16.661Z,2.17
2022-07-29T15:03:23.911Z,2.90
2022-07-29T15:06:27.277Z,2.53
2022-07-29T15:09:31.364Z,2.55
2022-07-29T15:12:34.506Z,2.78
2022-07-29T15:15:37.267Z,2.08
2022-07-29T15:18:40.333Z,3.03
2022-07-29T15:21:59.281Z,2.33
2022-07-29T15:25:04.002Z,2.30
2022-07-29T15:28:08.755Z,2.25
2022-07-29T15:31:11.454Z,1.92
2022-07-29T15:34:14.217Z,1.92
2022-07-29T15:37:17.030Z,2.15
2022-07-29T15:40:21.178Z,2.40
2022-07-29T15:43:24.071Z,1.92
2022-07-29T15:46:46.971Z,1.65
2022-07-29T15:49:50.514Z,2.13
2022-07-29T15:52:53.281Z,1.55
2022-07-29T15:55:57.380Z,1.80
2022-07-29T15:59:00.938Z,1.60
2022-07-29T16:02:03.950Z,1.60
2022-07-29T16:05:09.480Z,1.25
2022-07-29T16:08:12.597Z,1.40
2022-07-29T16:11:16.750Z,1.80
2022-07-29T16:14:19.520Z,1.30
2022-07-29T16:17:22.253Z,1.63
2022-07-29T16:20:25.392Z,1.50
2022-07-29T16:23:28.281Z,1.70
2022-07-29T16:26:32.522Z,1.40
2022-07-29T16:29:36.891Z,1.80
2022-07-29T16:32:40.202Z,2.03
2022-07-29T16:35:42.896Z,2.17
2022-07-29T16:38:47.248Z,2.13
2022-07-29T16:41:55.927Z,2.00
2022-07-29T16:45:03.132Z,1.90
2022-07-29T16:48:07.080Z,2.30
2022-07-29T16:51:10.803Z,2.17
2022-07-29T16:54:18.501Z,1.70
2022-07-29T16:57:23.700Z,1.80
2022-07-29T17:00:27.423Z,1.60
2022-07-29T17:03:31.570Z,1.92
2022-07-29T17:06:36.897Z,1.45
2022-07-29T17:09:40.575Z,1.83
2022-07-29T17:12:45.943Z,1.90
2022-07-29T17:15:49.699Z,2.55
2022-07-29T17:18:55.711Z,2.72
2022-07-29T17:22:07.052Z,2.85
2022-07-29T17:25:20.501Z,2.20
2022-07-29T17:28:27.555Z,2.80
2022-07-29T17:31:32.374Z,2.70
2022-07-29T17:34:36.534Z,2.50
2022-07-29T17:37:40.288Z,2.75
2022-07-29T17:40:44.214Z,2.92
2022-07-29T17:43:50.148Z,2.35
2022-07-29T17:46:53.803Z,2.30
2022-07-29T17:49:57.480Z,2.50
2022-07-29T17:53:01.268Z,2.70
2022-07-29T17:56:05.976Z,2.35
2022-07-29T17:59:11.538Z,2.50
2022-07-29T18:02:15.445Z,2.05
2022-07-29T18:05:19.691Z,2.17
2022-07-29T18:08:23.893Z,2.50
2022-07-29T18:11:28.228Z,2.30
2022-07-29T18:14:34.047Z,2.90
2022-07-29T18:17:56.780Z,1.92
2022-07-29T18:21:01.269Z,1.60
2022-07-29T18:24:06.238Z,1.67
2022-07-29T18:27:10.326Z,1.77
2022-07-29T18:30:16.240Z,1.80
2022-07-29T18:33:22.533Z,1.70
2022-07-29T18:36:26.492Z,1.60
2022-07-29T18:39:30.225Z,1.52
2022-07-29T18:42:34.391Z,1.80
2022-07-29T18:45:40.043Z,1.60
2022-07-29T18:48:43.684Z,1.40
2022-07-29T18:51:47.275Z,1.40
2022-07-29T18:54:50.871Z,1.45
2022-07-29T18:57:57.247Z,1.58
2022-07-29T19:01:02.585Z,1.52
2022-07-29T19:04:06.664Z,1.60
2022-07-29T19:07:10.444Z,1.95
2022-07-29T19:10:14.393Z,2.15
2022-07-29T19:13:17.974Z,1.70
2022-07-29T19:16:23.431Z,1.25
2022-07-29T19:19:27.213Z,1.80
2022-07-29T19:22:30.942Z,1.63
2022-07-29T19:25:35.650Z,2.20
2022-07-29T19:28:39.388Z,1.60
2022-07-29T19:31:47.518Z,1.85
2022-07-29T19:35:04.710Z,1.70
2022-07-29T19:38:08.676Z,1.52
2022-07-29T19:41:14.516Z,1.70
2022-07-29T19:44:18.474Z,1.50
2022-07-29T19:47:23.671Z,1.85
2022-07-29T19:50:28.570Z,1.77
2022-07-29T19:53:33.015Z,1.98
2022-07-29T19:56:38.039Z,2.30
2022-07-29T19:59:46.007Z,1.90
2022-07-29T20:02:52.997Z,2.35
2022-07-29T20:06:05.845Z,2.03
2022-07-29T20:09:09.354Z,1.88
2022-07-29T20:12:24.977Z,2.10
2022-07-29T20:15:29.635Z,2.00
2022-07-29T20:18:35.640Z,2.08
2022-07-29T20:21:39.639Z,2.00
2022-07-29T20:24:43.239Z,1.70
2022-07-29T20:27:50.824Z,2.17
2022-07-29T20:30:54.519Z,2.03
2022-07-29T20:33:59.982Z,1.75
2022-07-29T20:37:03.843Z,1.90
2022-07-29T20:40:12.474Z,2.13
2022-07-29T20:43:17.160Z,2.35
2022-07-29T20:46:22.051Z,2.13
2022-07-29T20:49:27.203Z,2.15
2022-07-29T20:52:31.513Z,2.47
2022-07-29T20:55:35.983Z,2.30
2022-07-29T20:58:41.001Z,2.35
2022-07-29T21:01:44.786Z,2.42
2022-07-29T21:04:49.863Z,2.25
2022-07-29T21:07:58.302Z,2.80
2022-07-29T21:11:02.285Z,2.85
2022-07-29T21:14:06.529Z,2.55
2022-07-29T21:17:10.645Z,2.70
2022-07-29T21:20:17.133Z,2.60
2022-07-29T21:23:20.999Z,2.70
2022-07-29T21:26:25.375Z,3.30
2022-07-29T21:29:27.920Z,2.95
2022-07-29T21:32:31.824Z,3.50
2022-07-29T21:36:06.346Z,3.40
2022-07-29T21:39:07.023Z,3.47
2022-07-29T21:42:11.052Z,4.40
2022-07-29T21:45:15.298Z,3.58
2022-07-29T21:48:20.076Z,3.90
2022-07-29T21:51:25.219Z,3.65
2022-07-29T21:54:29.045Z,3.45
2022-07-29T21:57:33.184Z,3.75
2022-07-29T22:00:37.397Z,3.60
2022-07-29T22:03:41.176Z,4.22
2022-07-29T22:06:46.372Z,3.80
2022-07-29T22:09:49.912Z,3.72
2022-07-29T22:12:57.599Z,3.97
2022-07-29T22:16:01.124Z,3.70
2022-07-29T22:19:05.106Z,4.25
2022-07-29T22:22:10.265Z,3.90
2022-07-29T22:25:14.413Z,4.05
2022-07-29T22:28:18.017Z,4.05
2022-07-29T22:31:21.934Z,4.32
2022-07-29T22:34:29.093Z,4.68
2022-07-29T22:37:42.918Z,3.85
2022-07-29T22:40:46.983Z,4.20
2022-07-29T22:43:51.470Z,4.50
2022-07-29T22:46:54.234Z,4.30
2022-07-29T22:49:57.097Z,4.35
2022-07-29T22:53:01.448Z,4.63
2022-07-29T22:56:04.624Z,4.15
2022-07-29T22:59:07.830Z,4.25
2022-07-29T23:02:10.648Z,4.30
2022-07-29T23:05:15.603Z,4.35
2022-07-29T23:08:20.259Z,4.63
2022-07-29T23:11:23.177Z,4.70
2022-07-29T23:14:25.899Z,4.25
2022-07-29T23:17:28.998Z,3.90
2022-07-29T23:20:31.839Z,4.13
2022-07-29T23:23:38.298Z,4.55
2022-07-29T23:26:41.006Z,5.05
2022-07-29T23:29:43.698Z,4.40
2022-07-29T23:32:46.540Z,4.47
2022-07-29T23:35:49.350Z,4.78
2022-07-29T23:38:54.984Z,4.63
2022-07-29T23:41:57.717Z,4.40
2022-07-29T23:45:00.486Z,4.35
2022-07-29T23:48:03.197Z,4.45
2022-07-29T23:51:05.938Z,4.35
2022-07-29T23:54:10.030Z,4.03
2022-07-29T23:57:12.822Z,4.15
